Terminal Aerodrome Forecast
Issued by NWS

Home | Current Version | Previous Version | Text Only | Print | Product List | Glossary On
Versions: 1 2 3 4 5 6 7 8 9 10 11 12 13 14 15 16 17 18 19 20 21
000
FTUS46 KOTX 220539
TAFCOE
TAF
KCOE 220539Z 2206/2306 23012KT P6SM SCT004 OVC008
      TEMPO 2206/2208 5SM BR BKN003
     FM220800 23006KT 5SM BR OVC005
     FM221600 21006KT P6SM BKN012 OVC020
     FM222000 22006KT P6SM BKN025 BKN200
     FM230100 VRB03KT 6SM BR BCFG SCT002=

USA.gov is the U.S. government's official web portal to all federal, state and local government web resources and services.